Time;durP1;ratioP1;P1;durP2;ratioP2;P2;SDS_P1;SDS_P2;PMS_P1;PMS_P2;Temp;Humidity;BMP_temperature;BMP_pressure;BME280_temperature;BME280_humidity;BME280_pressure;Samples;Min_cycle;Max_cycle;Signal;HPM_P1;HPM_P2
2023/01/31 00:04:28;;;;;;;8.30;1.88;;;;;;;2.74;76.15;99565.34;30859932;28;96857;-63
2023/01/31 00:19:29;;;;;;;7.28;1.73;;;;;;;2.79;75.75;99571.03;30858516;28;97382;-63
2023/01/31 00:34:29;;;;;;;7.82;1.90;;;;;;;2.79;75.65;99586.81;30857301;28;96642;-62
2023/01/31 00:49:30;;;;;;;11.40;2.00;;;;;;;2.57;75.15;99625.53;30856458;28;97569;-65
2023/01/31 01:04:30;;;;;;;7.93;1.85;;;;;;;2.65;74.89;99630.09;30855194;28;96668;-64
2023/01/31 01:19:31;;;;;;;9.43;2.13;;;;;;;2.63;74.27;99626.78;30853687;28;97444;-62
2023/01/31 01:34:33;;;;;;;4.15;1.13;;;;;;;2.69;73.16;99634.97;30853148;28;96632;-66
2023/01/31 01:49:36;;;;;;;9.13;1.52;;;;;;;2.61;72.86;99665.50;30867533;28;97609;-65
2023/01/31 02:04:39;;;;;;;6.53;0.90;;;;;;;2.63;72.59;99705.69;30870997;28;96802;-64
2023/01/31 02:20:03;;;;;;;7.18;1.50;;;;;;;2.66;72.40;99714.13;30869418;28;96733;-64
2023/01/31 02:35:22;;;;;;;6.47;1.43;;;;;;;2.64;72.63;99738.91;30868431;28;96733;-63
2023/01/31 02:50:43;;;;;;;4.28;1.88;;;;;;;2.44;72.37;99749.28;30866654;28;96825;-67
2023/01/31 03:05:44;;;;;;;5.63;1.45;;;;;;;2.40;71.85;99794.38;30865306;28;97537;-63
2023/01/31 03:21:02;;;;;;;10.00;1.67;;;;;;;2.34;71.83;99817.59;30863011;28;96749;-64
2023/01/31 03:36:11;;;;;;;4.35;1.00;;;;;;;2.32;71.31;99826.56;30862257;28;96544;-63
2023/01/31 03:51:18;;;;;;;7.18;1.33;;;;;;;2.25;70.17;99849.88;30860032;28;97309;-65
2023/01/31 04:06:19;;;;;;;9.82;1.50;;;;;;;2.27;69.98;99857.63;30858039;28;96653;-64
2023/01/31 04:21:19;;;;;;;4.82;1.20;;;;;;;2.25;69.19;99893.72;30855849;28;96632;-63
2023/01/31 04:36:20;;;;;;;7.38;1.35;;;;;;;2.25;68.21;99899.00;30853971;28;96627;-66
2023/01/31 04:51:20;;;;;;;12.77;2.20;;;;;;;2.16;68.31;99924.19;30846735;28;96639;-65
2023/01/31 05:06:21;;;;;;;11.45;1.48;;;;;;;2.07;68.87;99924.97;30842224;28;97388;-63
2023/01/31 05:21:21;;;;;;;5.28;1.63;;;;;;;1.78;69.76;99939.44;30862923;28;96767;-65
2023/01/31 05:36:22;;;;;;;6.55;1.30;;;;;;;1.73;69.82;99964.38;30871546;28;96724;-64
2023/01/31 05:51:22;;;;;;;8.88;1.60;;;;;;;1.75;70.17;99989.56;30869524;28;96617;-65
2023/01/31 06:06:23;;;;;;;11.80;2.47;;;;;;;1.72;69.82;100020.47;30867256;28;97291;-65
2023/01/31 06:21:23;;;;;;;8.95;1.63;;;;;;;1.79;69.31;100042.69;30866832;28;96665;-67
2023/01/31 06:36:24;;;;;;;6.18;2.10;;;;;;;1.80;69.32;100068.84;30861751;28;96694;-68
2023/01/31 06:51:24;;;;;;;7.82;2.92;;;;;;;1.74;69.27;100076.38;30859132;28;96765;-66
2023/01/31 07:06:25;;;;;;;8.95;2.05;;;;;;;1.77;69.10;100091.88;30860706;28;96631;-65
2023/01/31 07:21:25;;;;;;;4.18;2.40;;;;;;;1.93;69.41;100099.41;30859690;28;96745;-65
2023/01/31 07:36:26;;;;;;;10.13;3.38;;;;;;;2.00;68.99;100133.00;30857811;28;96640;-65
2023/01/31 07:51:26;;;;;;;12.05;2.42;;;;;;;2.32;69.32;100156.00;30855607;28;97170;-66
2023/01/31 08:06:29;;;;;;;9.52;1.75;;;;;;;2.55;68.70;100158.63;30855342;28;97453;-67
2023/01/31 08:21:29;;;;;;;5.32;2.13;;;;;;;3.19;68.05;100171.13;30853218;28;97303;-62
2023/01/31 08:36:30;;;;;;;6.82;2.13;;;;;;;3.47;67.69;100168.91;30852879;28;96591;-63
2023/01/31 08:51:31;;;;;;;6.80;1.50;;;;;;;3.49;67.29;100172.25;30850576;28;97330;-63
2023/01/31 09:06:31;;;;;;;6.47;1.80;;;;;;;4.58;66.25;100191.31;30850004;28;96699;-69
2023/01/31 09:21:32;;;;;;;4.03;1.45;;;;;;;11.29;58.56;100203.84;30849421;28;97471;-64
2023/01/31 09:36:32;;;;;;;8.13;1.80;;;;;;;9.78;52.11;100222.06;30849624;28;96917;-68
2023/01/31 09:51:33;;;;;;;5.63;1.52;;;;;;;10.48;51.54;100211.94;30850000;28;97427;-64
2023/01/31 10:06:42;;;;;;;8.37;2.23;;;;;;;7.09;54.04;100193.41;30858122;28;97390;-65
2023/01/31 10:21:50;;;;;;;6.72;2.60;;;;;;;6.59;56.18;100191.13;30813548;28;96773;-64
2023/01/31 10:37:04;;;;;;;6.32;1.80;;;;;;;5.86;57.43;100183.69;30819381;28;97609;-65
2023/01/31 10:52:27;;;;;;;10.63;2.20;;;;;;;5.46;58.68;100184.66;30810851;28;97081;-67
2023/01/31 11:07:30;;;;;;;6.82;1.75;;;;;;;6.37;58.84;100153.44;30747840;28;97543;-65
2023/01/31 11:22:32;;;;;;;14.43;2.97;;;;;;;6.01;58.41;100153.22;30817360;28;96949;-66
2023/01/31 11:37:33;;;;;;;7.00;1.75;;;;;;;5.42;60.10;100121.50;30798840;28;97176;-66
2023/01/31 11:52:34;;;;;;;4.72;1.40;;;;;;;4.82;60.67;100110.16;30763837;28;96701;-66
2023/01/31 12:07:49;;;;;;;8.32;2.67;;;;;;;4.62;62.38;100094.28;30789905;28;97431;-66
2023/01/31 12:23:12;;;;;;;5.28;1.88;;;;;;;4.38;63.92;100084.88;30813063;28;97381;-66
2023/01/31 12:38:50;;;;;;;4.50;1.80;;;;;;;4.40;64.58;100045.16;30797510;28;97655;-67
2023/01/31 12:53:50;;;;;;;4.53;2.30;;;;;;;4.28;65.10;100039.19;30795812;28;97917;-67
2023/01/31 13:09:11;;;;;;;5.88;2.45;;;;;;;4.21;66.02;100032.75;30791208;28;97099;-67
2023/01/31 13:24:18;;;;;;;8.32;3.08;;;;;;;3.82;67.08;100016.78;30799602;28;99473;-66
2023/01/31 13:39:23;;;;;;;4.60;1.95;;;;;;;3.78;67.29;99996.91;30811979;28;97144;-66
2023/01/31 13:54:30;;;;;;;11.27;3.33;;;;;;;3.72;67.94;99982.47;30835380;28;97020;-66
2023/01/31 14:09:31;;;;;;;8.48;3.00;;;;;;;3.72;68.52;99969.31;30764819;28;96860;-66
2023/01/31 14:24:48;;;;;;;11.63;3.25;;;;;;;3.48;68.14;99944.06;30828025;28;98151;-66
2023/01/31 14:40:15;;;;;;;12.00;3.13;;;;;;;3.37;69.27;99937.06;30791168;28;98488;-66
2023/01/31 14:55:37;;;;;;;9.48;3.22;;;;;;;3.21;69.40;99916.50;30780596;28;97316;-66
2023/01/31 15:11:03;;;;;;;8.65;3.17;;;;;;;3.21;70.29;99915.66;30821007;28;96798;-66
2023/01/31 15:26:04;;;;;;;11.02;4.00;;;;;;;3.28;70.96;99898.38;30810901;28;96761;-64
2023/01/31 15:41:33;;;;;;;9.82;3.90;;;;;;;3.02;71.26;99908.47;30833668;28;97096;-66
2023/01/31 15:56:38;;;;;;;10.65;3.33;;;;;;;2.86;71.90;99898.41;30826301;28;96582;-66
2023/01/31 16:11:40;;;;;;;9.38;2.15;;;;;;;2.33;72.31;99893.94;30803786;28;98238;-71
2023/01/31 16:27:04;;;;;;;10.63;4.03;;;;;;;1.93;73.99;99881.38;30819401;28;97406;-69
2023/01/31 16:42:21;;;;;;;9.27;3.30;;;;;;;1.73;74.37;99849.66;30780452;28;96738;-70
2023/01/31 16:57:32;;;;;;;8.30;3.67;;;;;;;1.69;74.96;99828.06;30803197;28;98446;-65
2023/01/31 17:12:37;;;;;;;13.40;5.60;;;;;;;1.65;75.51;99804.78;30808125;28;97222;-66
2023/01/31 17:27:37;;;;;;;;;;;;;;;1.64;76.37;99782.09;30795852;28;97490;-65
2023/01/31 17:42:37;;;;;;;13.73;6.15;;;;;;;1.74;77.03;99761.22;30787800;28;97159;-68
2023/01/31 17:57:39;;;;;;;9.15;5.10;;;;;;;2.07;76.90;99739.22;30864204;28;97491;-67
2023/01/31 18:12:41;;;;;;;8.07;3.75;;;;;;;2.35;76.87;99724.63;30833750;28;98046;-69
2023/01/31 18:27:41;;;;;;;3.40;1.75;;;;;;;2.73;76.87;99706.53;30793754;28;96752;-67
2023/01/31 18:42:41;;;;;;;2.78;1.52;;;;;;;3.07;76.15;99694.91;30749537;28;97005;-66
2023/01/31 18:57:42;;;;;;;2.20;1.48;;;;;;;3.17;75.25;99695.75;30855688;28;97200;-68
2023/01/31 19:12:42;;;;;;;3.55;2.05;;;;;;;3.23;74.85;99687.34;30823007;28;97257;-66
2023/01/31 19:27:43;;;;;;;4.03;1.83;;;;;;;3.26;75.13;99671.25;30835180;28;97939;-66
2023/01/31 19:42:44;;;;;;;6.00;2.42;;;;;;;3.30;75.18;99653.41;30854806;28;96659;-68
2023/01/31 19:57:45;;;;;;;4.13;2.42;;;;;;;3.41;74.88;99641.91;30785199;28;96657;-67
2023/01/31 20:12:45;;;;;;;2.28;1.95;;;;;;;3.52;75.47;99628.59;30790976;28;96783;-67
2023/01/31 20:27:46;;;;;;;3.72;2.90;;;;;;;3.45;75.26;99624.88;30856321;28;96762;-69
2023/01/31 20:42:47;;;;;;;4.95;2.22;;;;;;;3.47;75.39;99607.13;30853086;28;96832;-68
2023/01/31 20:57:49;;;;;;;3.83;1.70;;;;;;;3.55;75.31;99610.75;30852395;28;97441;-68
2023/01/31 21:12:49;;;;;;;3.58;1.65;;;;;;;3.62;75.12;99603.09;30852307;28;97411;-68
2023/01/31 21:27:49;;;;;;;5.65;2.15;;;;;;;3.70;75.26;99595.34;30851024;28;96667;-68
2023/01/31 21:42:51;;;;;;;2.42;1.70;;;;;;;3.81;75.14;99591.69;30850544;28;97391;-66
2023/01/31 21:57:52;;;;;;;2.08;1.77;;;;;;;3.89;75.22;99573.38;30852369;28;97225;-67
2023/01/31 22:12:52;;;;;;;2.92;2.00;;;;;;;3.72;74.78;99574.13;30869588;28;96562;-67
2023/01/31 22:27:53;;;;;;;6.10;2.90;;;;;;;3.53;74.47;99567.06;30867961;28;96607;-66
2023/01/31 22:42:53;;;;;;;4.00;1.40;;;;;;;3.75;74.85;99523.78;30866949;28;96637;-66
2023/01/31 22:57:54;;;;;;;3.53;1.77;;;;;;;3.98;74.12;99555.88;30866016;28;96550;-67
2023/01/31 23:12:54;;;;;;;9.15;0.93;;;;;;;2.62;72.54;99683.78;30864113;28;97500;-66
2023/01/31 23:27:56;;;;;;;1.48;0.63;;;;;;;1.72;74.31;99665.94;30862506;28;96689;-67
2023/01/31 23:42:56;;;;;;;1.25;0.55;;;;;;;1.62;75.37;99613.34;30861989;28;96675;-67
2023/01/31 23:57:56;;;;;;;0.40;0.40;;;;;;;1.47;75.62;99644.31;30861587;28;97800;-67
